Woodgate, New York
Current Conditions -  °F | °C
As of 2:53 AM on Friday 19 Dec 2014 (Local Time) from KRME Reporting Station
Overcast Overcast  
Wind Chill: 19°   Ceiling: 3300
Heat Index: 28°   Visibility: 10mi
Dew Point: 25°   Wind: 9mph
Humidity: 88%   Direction: 280°W
Pressure: 30.03"   Gusts: NA
Location:  43.52°N, 75.16°W
Report Text: KRME 190753Z AUTO 28008KT 10SM OVC033 M02/M04 A3003 RMK AO2 SLP173 T10221039
Loading
Personal Weather Stations






























Interactive Weather Map New forecast layout! Learn more

10-Day Weather Forecast

Advertisements
Track Severe Weather on mobile